Terminal Aerodrome Forecast
Issued by NWS Sterling, VA

Current Version | Previous Version | Graphics & Text | Print | Product List | Glossary Off
Versions: 1 2 3 4 5 6 7 8 9 10 11 12 13 14 15 16 17

000
FTUS41 KLWX 221125
TAFMRB
TAF
KMRB 221125Z 2212/2312 00000KT 3SM BR SKC
     FM221300 21009KT P6SM SCT150
     FM221900 23010G18KT P6SM BKN050
     FM230000 23009KT P6SM -SHRA VCTS BKN050CB
     FM230600 28005KT P6SM BKN050=

USA.gov is the U.S. government's official web portal to all federal, state and local government web resources and services.